Time,TemperatureF,DewpointF,PressureIn,WindDirection,WindDirectionDegrees,WindSpeedMPH,WindSpeedGustMPH,Humidity,HourlyPrecipIn,Conditions,Clouds,dailyrainin,SoftwareType,DateUTC
2013-03-11 00:03:00,44.0,29.0,30.22,ESE,113,4.0,5.0,56,-99.99,,,-99.99,,2013-03-11 04:03:00,
2013-03-11 00:12:00,44.0,29.0,30.22,ESE,113,4.0,5.0,56,-99.99,,,-99.99,,2013-03-11 04:12:00,
2013-03-11 00:22:00,43.0,28.0,30.21,ESE,113,1.0,2.0,55,-99.99,,,-99.99,,2013-03-11 04:22:00,
2013-03-11 00:33:00,44.0,28.0,30.22,ESE,113,1.0,2.0,53,-99.99,,,-99.99,,2013-03-11 04:33:00,
2013-03-11 00:43:00,44.0,28.0,30.22,ESE,113,1.0,2.0,53,-99.99,,,-99.99,,2013-03-11 04:43:00,
2013-03-11 00:52:00,44.0,28.0,30.22,ESE,113,1.0,1.0,52,-99.99,,,-99.99,,2013-03-11 04:52:00,
2013-03-11 01:03:00,44.0,28.0,30.21,North,7,2.0,2.0,52,-99.99,,,-99.99,,2013-03-11 05:03:00,
2013-03-11 01:12:00,44.0,28.0,30.21,North,7,2.0,2.0,52,-99.99,,,-99.99,,2013-03-11 05:12:00,
2013-03-11 01:22:00,44.0,28.0,30.20,NNW,338,3.0,4.0,52,-99.99,,,-99.99,,2013-03-11 05:22:00,
2013-03-11 01:32:00,44.0,27.0,30.20,NW,315,4.0,4.0,50,-99.99,,,-99.99,,2013-03-11 05:32:00,
2013-03-11 01:43:00,44.0,27.0,30.20,NW,315,4.0,4.0,50,-99.99,,,-99.99,,2013-03-11 05:43:00,
2013-03-11 01:52:00,42.0,27.0,30.21,SSE,151,3.0,6.0,56,-99.99,,,-99.99,,2013-03-11 05:52:00,
2013-03-11 02:02:00,42.0,27.0,30.20,SE,135,2.0,3.0,55,-99.99,,,-99.99,,2013-03-11 06:02:00,
2013-03-11 02:12:00,42.0,27.0,30.20,SE,135,2.0,3.0,55,-99.99,,,-99.99,,2013-03-11 06:12:00,
2013-03-11 02:22:00,42.0,27.0,30.20,SE,135,2.0,2.0,54,-99.99,,,-99.99,,2013-03-11 06:22:00,
2013-03-11 02:33:00,41.0,27.0,30.20,SE,143,6.0,6.0,58,-99.99,,,-99.99,,2013-03-11 06:33:00,
2013-03-11 02:42:00,41.0,27.0,30.20,SE,143,6.0,6.0,58,-99.99,,,-99.99,,2013-03-11 06:42:00,
2013-03-11 02:52:00,41.0,27.0,30.20,SE,135,4.0,6.0,58,-99.99,,,-99.99,,2013-03-11 06:52:00,
2013-03-11 03:03:00,40.0,27.0,30.19,SE,135,3.0,5.0,60,-99.99,,,-99.99,,2013-03-11 07:03:00,
2013-03-11 03:12:00,40.0,27.0,30.19,SE,135,3.0,5.0,60,-99.99,,,-99.99,,2013-03-11 07:12:00,
2013-03-11 03:22:00,40.0,27.0,30.19,SE,135,3.0,5.0,60,-99.99,,,-99.99,,2013-03-11 07:22:00,
2013-03-11 03:32:00,39.0,27.0,30.19,SE,135,3.0,4.0,62,-99.99,,,-99.99,,2013-03-11 07:32:00,
2013-03-11 03:42:00,39.0,27.0,30.19,SE,135,3.0,4.0,62,-99.99,,,-99.99,,2013-03-11 07:42:00,
2013-03-11 03:52:00,39.0,27.0,30.18,SE,135,3.0,4.0,62,-99.99,,,-99.99,,2013-03-11 07:52:00,
2013-03-11 04:02:00,39.0,27.0,30.17,SE,135,2.0,3.0,61,-99.99,,,-99.99,,2013-03-11 08:02:00,
2013-03-11 04:12:00,39.0,27.0,30.17,SE,135,2.0,3.0,61,-99.99,,,-99.99,,2013-03-11 08:12:00,
2013-03-11 04:22:00,39.0,27.0,30.17,SE,135,2.0,3.0,61,-99.99,,,-99.99,,2013-03-11 08:22:00,
2013-03-11 04:33:00,37.0,26.0,30.17,SE,135,3.0,4.0,64,-99.99,,,-99.99,,2013-03-11 08:33:00,
2013-03-11 04:42:00,37.0,26.0,30.17,SE,135,3.0,4.0,64,-99.99,,,-99.99,,2013-03-11 08:42:00,
2013-03-11 04:52:00,37.0,26.0,30.16,ESE,113,3.0,4.0,65,-99.99,,,-99.99,,2013-03-11 08:52:00,
2013-03-11 05:02:00,37.0,27.0,30.16,ESE,113,2.0,3.0,66,-99.99,,,-99.99,,2013-03-11 09:02:00,
2013-03-11 05:12:00,37.0,27.0,30.16,ESE,113,2.0,3.0,66,-99.99,,,-99.99,,2013-03-11 09:12:00,
2013-03-11 05:23:00,37.0,27.0,30.16,ESE,113,2.0,3.0,66,-99.99,,,-99.99,,2013-03-11 09:23:00,
2013-03-11 05:32:00,36.0,26.0,30.15,SE,135,0.0,2.0,67,-99.99,,,-99.99,,2013-03-11 09:32:00,
2013-03-11 05:42:00,36.0,26.0,30.15,SE,135,0.0,2.0,67,-99.99,,,-99.99,,2013-03-11 09:42:00,
2013-03-11 05:53:00,36.0,26.0,30.15,SE,135,3.0,3.0,67,-99.99,,,-99.99,,2013-03-11 09:53:00,
2013-03-11 06:02:00,35.0,26.0,30.16,SE,135,4.0,4.0,68,-99.99,,,-99.99,,2013-03-11 10:02:00,
2013-03-11 06:12:00,35.0,26.0,30.16,SE,135,4.0,4.0,68,-99.99,,,-99.99,,2013-03-11 10:12:00,
2013-03-11 06:22:00,35.0,26.0,30.15,SE,135,3.0,4.0,69,-99.99,,,-99.99,,2013-03-11 10:22:00,
2013-03-11 06:32:00,35.0,26.0,30.14,SE,135,4.0,4.0,69,-99.99,,,-99.99,,2013-03-11 10:32:00,
2013-03-11 06:42:00,35.0,26.0,30.14,SE,135,4.0,4.0,69,-99.99,,,-99.99,,2013-03-11 10:42:00,
2013-03-11 06:52:00,35.0,26.0,30.15,SE,135,4.0,5.0,69,-99.99,,,-99.99,,2013-03-11 10:52:00,
2013-03-11 07:02:00,34.0,25.0,30.14,ESE,113,3.0,4.0,70,-99.99,,,-99.99,,2013-03-11 11:02:00,
2013-03-11 07:12:00,34.0,25.0,30.14,ESE,113,3.0,4.0,70,-99.99,,,-99.99,,2013-03-11 11:12:00,
2013-03-11 07:22:00,34.0,25.0,30.14,ESE,113,4.0,4.0,70,-99.99,,,-99.99,,2013-03-11 11:22:00,
2013-03-11 07:32:00,34.0,25.0,30.14,SE,135,3.0,3.0,70,-99.99,,,-99.99,,2013-03-11 11:32:00,
2013-03-11 07:42:00,34.0,25.0,30.14,SE,135,3.0,3.0,70,-99.99,,,-99.99,,2013-03-11 11:42:00,
2013-03-11 07:52:00,35.0,26.0,30.14,SE,135,4.0,5.0,70,-99.99,,,-99.99,,2013-03-11 11:52:00,
2013-03-11 08:02:00,35.0,26.0,30.14,SE,135,4.0,5.0,70,-99.99,,,-99.99,,2013-03-11 12:02:00,
2013-03-11 08:12:00,35.0,26.0,30.14,SE,135,4.0,5.0,70,-99.99,,,-99.99,,2013-03-11 12:12:00,
2013-03-11 08:22:00,35.0,26.0,30.15,SE,135,5.0,6.0,70,-99.99,,,-99.99,,2013-03-11 12:22:00,
2013-03-11 08:32:00,35.0,26.0,30.15,SE,135,5.0,6.0,70,-99.99,,,-99.99,,2013-03-11 12:32:00,
2013-03-11 08:43:00,35.0,26.0,30.15,SE,135,5.0,6.0,70,-99.99,,,-99.99,,2013-03-11 12:43:00,
2013-03-11 08:53:00,36.0,27.0,30.15,SE,135,2.0,3.0,70,-99.99,,,-99.99,,2013-03-11 12:53:00,
2013-03-11 09:02:00,36.0,27.0,30.15,SE,135,3.0,4.0,70,-99.99,,,-99.99,,2013-03-11 13:02:00,
2013-03-11 09:12:00,36.0,27.0,30.15,SE,135,3.0,4.0,70,-99.99,,,-99.99,,2013-03-11 13:12:00,
2013-03-11 09:22:00,37.0,28.0,30.14,SE,135,2.0,3.0,69,-99.99,,,-99.99,,2013-03-11 13:22:00,
2013-03-11 09:32:00,37.0,28.0,30.14,SE,135,2.0,3.0,69,-99.99,,,-99.99,,2013-03-11 13:32:00,
2013-03-11 09:42:00,37.0,28.0,30.14,SE,135,2.0,3.0,69,-99.99,,,-99.99,,2013-03-11 13:42:00,
2013-03-11 09:53:00,39.0,29.0,30.14,SE,135,0.0,2.0,68,-99.99,,,-99.99,,2013-03-11 13:53:00,
2013-03-11 10:02:00,41.0,31.0,30.14,SE,135,1.0,1.0,68,-99.99,,,-99.99,,2013-03-11 14:02:00,
2013-03-11 10:12:00,41.0,31.0,30.14,SE,135,1.0,1.0,68,-99.99,,,-99.99,,2013-03-11 14:12:00,
2013-03-11 10:22:00,42.0,32.0,30.14,SE,135,0.0,1.0,67,-99.99,,,-99.99,,2013-03-11 14:22:00,
2013-03-11 10:33:00,45.0,34.0,30.14,SE,135,0.0,0.0,65,-99.99,,,-99.99,,2013-03-11 14:33:00,
2013-03-11 10:42:00,45.0,34.0,30.14,SE,135,0.0,0.0,65,-99.99,,,-99.99,,2013-03-11 14:42:00,
2013-03-11 10:52:00,46.0,34.0,30.14,ESE,105,1.0,2.0,62,-99.99,,,-99.99,,2013-03-11 14:52:00,
2013-03-11 11:03:00,47.0,34.0,30.14,NNW,338,1.0,2.0,60,-99.99,,,-99.99,,2013-03-11 15:03:00,
2013-03-11 11:13:00,47.0,34.0,30.14,NNW,338,1.0,2.0,60,-99.99,,,-99.99,,2013-03-11 15:13:00,
2013-03-11 11:22:00,48.0,34.0,30.14,NW,315,3.0,4.0,57,-99.99,,,-99.99,,2013-03-11 15:22:00,
2013-03-11 11:32:00,48.0,33.0,30.14,NW,315,4.0,5.0,56,-99.99,,,-99.99,,2013-03-11 15:32:00,
2013-03-11 11:42:00,48.0,33.0,30.14,NW,315,4.0,5.0,56,-99.99,,,-99.99,,2013-03-11 15:42:00,
2013-03-11 11:53:00,49.0,34.0,30.14,NNW,338,4.0,4.0,55,-99.99,,,-99.99,,2013-03-11 15:53:00,
2013-03-11 12:03:00,51.0,34.0,30.14,NW,306,3.0,4.0,52,-99.99,,,-99.99,,2013-03-11 16:03:00,
2013-03-11 12:13:00,51.0,34.0,30.14,NW,306,3.0,4.0,52,-99.99,,,-99.99,,2013-03-11 16:13:00,
2013-03-11 12:22:00,51.0,34.0,30.13,NW,315,2.0,4.0,51,-99.99,,,-99.99,,2013-03-11 16:22:00,
2013-03-11 12:32:00,53.0,34.0,30.12,WNW,293,3.0,5.0,49,-99.99,,,-99.99,,2013-03-11 16:32:00,
2013-03-11 12:43:00,53.0,34.0,30.12,WNW,293,3.0,5.0,49,-99.99,,,-99.99,,2013-03-11 16:43:00,
2013-03-11 12:52:00,54.0,34.0,30.12,NW,315,2.0,4.0,46,-99.99,,,-99.99,,2013-03-11 16:52:00,
2013-03-11 13:03:00,54.0,34.0,30.12,NW,315,2.0,4.0,46,-99.99,,,-99.99,,2013-03-11 17:03:00,
2013-03-11 13:15:00,54.0,34.0,30.12,NW,315,2.0,4.0,46,-99.99,,,-99.99,,2013-03-11 17:15:00,
2013-03-11 13:27:00,56.0,35.0,30.10,WNW,293,0.0,4.0,45,-99.99,,,-99.99,,2013-03-11 17:27:00,
2013-03-11 13:36:00,56.0,35.0,30.10,WNW,293,0.0,4.0,45,-99.99,,,-99.99,,2013-03-11 17:36:00,
2013-03-11 13:42:00,56.0,35.0,30.10,WNW,293,0.0,4.0,45,-99.99,,,-99.99,,2013-03-11 17:42:00,
2013-03-11 13:53:00,57.0,36.0,30.09,NW,319,3.0,3.0,45,-99.99,,,-99.99,,2013-03-11 17:53:00,
2013-03-11 14:02:00,58.0,37.0,30.08,NW,314,5.0,7.0,45,-99.99,,,-99.99,,2013-03-11 18:02:00,
2013-03-11 14:12:00,58.0,37.0,30.08,NW,314,5.0,7.0,45,-99.99,,,-99.99,,2013-03-11 18:12:00,
2013-03-11 14:23:00,59.0,38.0,30.07,NW,315,3.0,5.0,45,-99.99,,,-99.99,,2013-03-11 18:23:00,
2013-03-11 14:33:00,61.0,41.0,30.06,NNW,338,5.0,5.0,47,-99.99,,,-99.99,,2013-03-11 18:33:00,
2013-03-11 14:42:00,61.0,41.0,30.06,NNW,338,5.0,5.0,47,-99.99,,,-99.99,,2013-03-11 18:42:00,
2013-03-11 14:52:00,61.0,42.0,30.06,North,352,7.0,8.0,49,-99.99,,,-99.99,,2013-03-11 18:52:00,
2013-03-11 15:02:00,59.0,42.0,30.04,NNW,338,4.0,6.0,54,-99.99,,,-99.99,,2013-03-11 19:02:00,
2013-03-11 15:12:00,59.0,42.0,30.04,NNW,338,4.0,6.0,54,-99.99,,,-99.99,,2013-03-11 19:12:00,
2013-03-11 15:23:00,59.0,43.0,30.04,NW,315,0.0,4.0,56,-99.99,,,-99.99,,2013-03-11 19:23:00,
2013-03-11 15:33:00,58.0,43.0,30.04,NNE,18,1.0,5.0,58,-99.99,,,-99.99,,2013-03-11 19:33:00,
2013-03-11 15:42:00,58.0,43.0,30.04,NNE,18,1.0,5.0,58,-99.99,,,-99.99,,2013-03-11 19:42:00,
2013-03-11 15:52:00,57.0,43.0,30.03,NNW,338,4.0,5.0,59,-99.99,,,-99.99,,2013-03-11 19:52:00,
2013-03-11 16:02:00,57.0,43.0,30.02,NW,315,0.0,2.0,60,-99.99,,,-99.99,,2013-03-11 20:02:00,
2013-03-11 16:12:00,57.0,43.0,30.02,NW,315,0.0,2.0,60,-99.99,,,-99.99,,2013-03-11 20:12:00,
2013-03-11 16:22:00,58.0,45.0,30.02,NW,315,1.0,4.0,61,-99.99,,,-99.99,,2013-03-11 20:22:00,
2013-03-11 16:32:00,58.0,45.0,30.00,NW,323,5.0,6.0,61,-99.99,,,-99.99,,2013-03-11 20:32:00,
2013-03-11 16:43:00,58.0,45.0,30.00,NW,323,5.0,6.0,61,-99.99,,,-99.99,,2013-03-11 20:43:00,
2013-03-11 16:52:00,58.0,45.0,29.99,NW,315,5.0,6.0,61,-99.99,,,-99.99,,2013-03-11 20:52:00,
2013-03-11 17:03:00,57.0,44.0,29.98,NW,305,5.0,7.0,62,-99.99,,,-99.99,,2013-03-11 21:03:00,
2013-03-11 17:13:00,57.0,44.0,29.98,NW,305,5.0,7.0,62,-99.99,,,-99.99,,2013-03-11 21:13:00,
2013-03-11 17:22:00,58.0,45.0,29.97,NNW,338,4.0,7.0,63,-99.99,,,-99.99,,2013-03-11 21:22:00,
2013-03-11 17:33:00,58.0,45.0,29.98,NNW,329,2.0,3.0,63,-99.99,,,-99.99,,2013-03-11 21:33:00,
2013-03-11 17:44:00,58.0,45.0,29.98,NNW,329,2.0,3.0,63,-99.99,,,-99.99,,2013-03-11 21:44:00,
2013-03-11 17:52:00,58.0,45.0,29.98,NNW,338,0.0,2.0,63,-99.99,,,-99.99,,2013-03-11 21:52:00,
2013-03-11 18:03:00,58.0,46.0,29.97,NW,323,2.0,2.0,64,-99.99,,,-99.99,,2013-03-11 22:03:00,
2013-03-11 18:12:00,58.0,46.0,29.97,NW,323,2.0,2.0,64,-99.99,,,-99.99,,2013-03-11 22:12:00,
2013-03-11 18:22:00,57.0,45.0,29.96,NW,324,4.0,5.0,65,-99.99,,,-99.99,,2013-03-11 22:22:00,
2013-03-11 18:32:00,57.0,46.0,29.95,NW,315,4.0,4.0,66,-99.99,,,-99.99,,2013-03-11 22:32:00,
2013-03-11 18:43:00,57.0,46.0,29.95,NW,315,4.0,4.0,66,-99.99,,,-99.99,,2013-03-11 22:43:00,
2013-03-11 18:52:00,57.0,46.0,29.95,NW,315,2.0,4.0,66,-99.99,,,-99.99,,2013-03-11 22:52:00,
2013-03-11 19:03:00,56.0,45.0,29.93,NW,315,2.0,2.0,66,-99.99,,,-99.99,,2013-03-11 23:03:00,
2013-03-11 19:12:00,56.0,45.0,29.93,NW,315,2.0,2.0,66,-99.99,,,-99.99,,2013-03-11 23:12:00,
2013-03-11 19:22:00,56.0,45.0,29.93,East,100,3.0,4.0,67,-99.99,,,-99.99,,2013-03-11 23:22:00,
2013-03-11 19:32:00,55.0,45.0,29.95,SSE,158,4.0,6.0,69,-99.99,,,-99.99,,2013-03-11 23:32:00,
2013-03-11 19:43:00,55.0,45.0,29.95,SSE,158,4.0,6.0,69,-99.99,,,-99.99,,2013-03-11 23:43:00,
2013-03-11 20:02:00,55.0,45.0,29.95,SE,130,4.0,4.0,69,-99.99,,,-99.99,,2013-03-12 00:02:00,
2013-03-11 20:12:00,55.0,45.0,29.95,SE,130,4.0,4.0,69,-99.99,,,-99.99,,2013-03-12 00:12:00,
2013-03-11 20:23:00,55.0,45.0,29.93,ESE,113,3.0,3.0,69,-99.99,,,-99.99,,2013-03-12 00:23:00,
2013-03-11 20:33:00,55.0,45.0,29.95,SE,135,2.0,4.0,69,-99.99,,,-99.99,,2013-03-12 00:33:00,
2013-03-11 20:42:00,55.0,45.0,29.95,SE,135,2.0,4.0,69,-99.99,,,-99.99,,2013-03-12 00:42:00,
2013-03-11 20:53:00,55.0,45.0,29.95,SE,135,2.0,4.0,69,-99.99,,,-99.99,,2013-03-12 00:53:00,
2013-03-11 21:02:00,54.0,44.0,29.96,SE,131,4.0,6.0,70,-99.99,,,-99.99,,2013-03-12 01:02:00,
2013-03-11 21:12:00,54.0,44.0,29.96,SE,131,4.0,6.0,70,-99.99,,,-99.99,,2013-03-12 01:12:00,
2013-03-11 21:22:00,54.0,44.0,29.96,SE,131,4.0,6.0,70,-99.99,,,-99.99,,2013-03-12 01:22:00,
2013-03-11 21:33:00,54.0,44.0,29.94,SSE,158,1.0,2.0,70,-99.99,,,-99.99,,2013-03-12 01:33:00,
2013-03-11 21:42:00,54.0,44.0,29.94,SSE,158,1.0,2.0,70,-99.99,,,-99.99,,2013-03-12 01:42:00,
2013-03-11 21:53:00,53.0,44.0,29.95,SSE,158,3.0,4.0,71,-99.99,,,-99.99,,2013-03-12 01:53:00,
2013-03-11 22:02:00,53.0,44.0,29.95,SSE,158,4.0,4.0,72,-99.99,,,-99.99,,2013-03-12 02:02:00,
2013-03-11 22:13:00,53.0,44.0,29.95,SSE,158,4.0,4.0,72,-99.99,,,-99.99,,2013-03-12 02:13:00,
2013-03-11 22:22:00,54.0,45.0,29.94,SW,225,2.0,4.0,72,-99.99,,,-99.99,,2013-03-12 02:22:00,
2013-03-11 22:32:00,55.0,46.0,29.94,SSE,158,2.0,3.0,72,-99.99,,,-99.99,,2013-03-12 02:32:00,
2013-03-11 22:42:00,55.0,46.0,29.94,SSE,158,2.0,3.0,72,-99.99,,,-99.99,,2013-03-12 02:42:00,
2013-03-11 22:52:00,54.0,45.0,29.93,NNW,338,2.0,3.0,72,-99.99,,,-99.99,,2013-03-12 02:52:00,
2013-03-11 23:02:00,54.0,46.0,29.93,NNW,338,0.0,0.0,73,-99.99,,,-99.99,,2013-03-12 03:02:00,
2013-03-11 23:12:00,54.0,46.0,29.93,NNW,338,0.0,0.0,73,-99.99,,,-99.99,,2013-03-12 03:12:00,
2013-03-11 23:22:00,54.0,46.0,29.93,NNW,338,0.0,0.0,74,-99.99,,,-99.99,,2013-03-12 03:22:00,
2013-03-11 23:32:00,54.0,46.0,29.91,NW,315,4.0,4.0,75,-99.99,,,-99.99,,2013-03-12 03:32:00,
2013-03-11 23:42:00,54.0,46.0,29.91,NW,315,4.0,4.0,75,-99.99,,,-99.99,,2013-03-12 03:42:00,
2013-03-11 23:52:00,55.0,48.0,29.92,NW,315,1.0,4.0,76,-99.99,,,-99.99,,2013-03-12 03:52:00,